^^
Meteo Knjazevac Station Historical Data
Daily Summary for March 24, 2021 Units:  Metric    English   Both
Daily Weekly Monthly Yearly Custom
  High: Low: Average:
Temperature: 5.3 °C 0 °C 2.2 °C
Dew Point: 4.7 °C -0.1 °C 2 °C
Humidity: 99% 96% 98%
Wind Speed: 4.8km/h 0km/h 1.8km/h
Wind Gust: 9.7km/h - -
Wind- - West
Pressure: 1028.3 hPa 1026.6 hPa -
Precipitation: 0 mm    
Historical Graphs
 
 
Tabular Data for March 24, 2021
Time Temperature Dew Point Pressure Wind Wind Speed Wind Gust Humidity Rainfall Rate (Hourly) solar Conditions
00:00 5.3 °C 4.7 °C 1026.6 hPa SW 1.6 km/h 3.2 km/h 96% 0 mm 0 W/m2
00:10 5.3 °C 4.7 °C 1026.6 hPa SW 1.6 km/h 4.8 km/h 96% 0 mm 0 W/m2
00:20 5.1 °C 4.5 °C 1026.6 hPa WSW 1.6 km/h 4.8 km/h 96% 0 mm 0 W/m2
00:30 5 °C 4.4 °C 1026.6 hPa South 1.6 km/h 4.8 km/h 96% 0 mm 0 W/m2
00:40 4.8 °C 4.2 °C 1026.6 hPa South 1.6 km/h 4.8 km/h 96% 0 mm 0 W/m2
00:50 4.6 °C 4 °C 1026.6 hPa SW 1.6 km/h 4.8 km/h 96% 0 mm 0 W/m2
01:00 4.5 °C 4.2 °C 1026.6 hPa SSW 3.2 km/h 4.8 km/h 98% 0 mm 0 W/m2
01:10 4.3 °C 4 °C 1026.6 hPa WSW 1.6 km/h 6.4 km/h 98% 0 mm 0 W/m2
01:20 4.2 °C 3.9 °C 1027 hPa WSW 3.2 km/h 6.4 km/h 98% 0 mm 0 W/m2
01:30 4.1 °C 3.8 °C 1027 hPa SW 3.2 km/h 6.4 km/h 98% 0 mm 0 W/m2
01:40 4 °C 3.7 °C 1027 hPa SW 1.6 km/h 4.8 km/h 98% 0 mm 0 W/m2
01:50 3.9 °C 3.6 °C 1027 hPa West 3.2 km/h 4.8 km/h 98% 0 mm 0 W/m2
02:00 3.8 °C 3.5 °C 1027 hPa WSW 3.2 km/h 4.8 km/h 98% 0 mm 0 W/m2
02:10 3.7 °C 3.4 °C 1027.3 hPa WSW 3.2 km/h 4.8 km/h 98% 0 mm 0 W/m2
02:20 3.7 °C 3.4 °C 1027.3 hPa West 3.2 km/h 4.8 km/h 98% 0 mm 0 W/m2
02:30 3.6 °C 3.3 °C 1027 hPa West 1.6 km/h 4.8 km/h 98% 0 mm 0 W/m2
02:40 3.6 °C 3.3 °C 1027.3 hPa West 3.2 km/h 6.4 km/h 98% 0 mm 0 W/m2
02:50 3.4 °C 3.1 °C 1027 hPa WSW 3.2 km/h 6.4 km/h 98% 0 mm 0 W/m2
03:00 3.3 °C 3 °C 1027 hPa WSW 3.2 km/h 6.4 km/h 98% 0 mm 0 W/m2
03:10 3.2 °C 2.9 °C 1027 hPa West 3.2 km/h 8 km/h 98% 0 mm 0 W/m2
03:20 3.1 °C 2.8 °C 1027 hPa WSW 3.2 km/h 6.4 km/h 98% 0 mm 0 W/m2
03:30 3 °C 2.7 °C 1027 hPa West 3.2 km/h 8 km/h 98% 0 mm 0 W/m2
03:40 2.9 °C 2.6 °C 1027 hPa Calm   8 km/h 98% 0 mm 0 W/m2
03:50 2.8 °C 2.5 °C 1027 hPa WSW 3.2 km/h 4.8 km/h 98% 0 mm 0 W/m2
04:00 2.6 °C 2.3 °C 1027 hPa SW 1.6 km/h 4.8 km/h 98% 0 mm 0 W/m2
04:10 2.6 °C 2.3 °C 1027 hPa WSW 3.2 km/h 4.8 km/h 98% 0 mm 0 W/m2
04:20 2.4 °C 2.1 °C 1027 hPa WSW 1.6 km/h 4.8 km/h 98% 0 mm 0 W/m2
04:30 2.3 °C 2 °C 1027 hPa West 3.2 km/h 4.8 km/h 98% 0 mm 0 W/m2
04:40 2.1 °C 1.8 °C 1027 hPa WNW 4.8 km/h 6.4 km/h 98% 0 mm 0 W/m2
04:50 1.9 °C 1.8 °C 1027 hPa WNW 3.2 km/h 6.4 km/h 99% 0 mm 0 W/m2
05:00 1.8 °C 1.7 °C 1027.3 hPa WNW 1.6 km/h 6.4 km/h 99% 0 mm 0 W/m2
05:10 1.6 °C 1.3 °C 1027.3 hPa West 4.8 km/h 9.7 km/h 98% 0 mm 0 W/m2
05:20 1.5 °C 1.3 °C 1027.3 hPa West 3.2 km/h 8 km/h 99% 0 mm 0 W/m2
05:30 1.3 °C 1.1 °C 1027.3 hPa West 1.6 km/h 4.8 km/h 98% 0 mm 0 W/m2
05:40 1.1 °C 0.8 °C 1027.3 hPa Calm   4.8 km/h 98% 0 mm 0 W/m2
05:50 0.9 °C 0.6 °C 1027.3 hPa WNW 1.6 km/h 3.2 km/h 98% 0 mm 0 W/m2
06:00 0.8 °C 0.5 °C 1027.3 hPa Calm   3.2 km/h 98% 0 mm 0 W/m2
06:10 0.6 °C 0.3 °C 1027.7 hPa Calm   3.2 km/h 98% 0 mm 0 W/m2
06:20 0.5 °C 0.4 °C 1027.7 hPa Calm   4.8 km/h 99% 0 mm 0 W/m2
06:30 0.3 °C 0.2 °C 1027.7 hPa WNW 1.6 km/h 3.2 km/h 99% 0 mm 0 W/m2
06:40 0.2 °C 0.1 °C 1027.7 hPa WNW 1.6 km/h 3.2 km/h 99% 0 mm 4 W/m2
06:50 0.2 °C 0.1 °C 1027.7 hPa NW 1.6 km/h 4.8 km/h 99% 0 mm 5 W/m2
07:00 0.2 °C 0.1 °C 1028 hPa NW 1.6 km/h 3.2 km/h 99% 0 mm 18 W/m2
07:10 0.1 °C -0.1 °C 1028 hPa NNW 3.2 km/h 4.8 km/h 99% 0 mm 27 W/m2
07:20 0.1 °C -0.1 °C 1028 hPa WNW 1.6 km/h 4.8 km/h 99% 0 mm 49 W/m2
07:30 0 °C -0.1 °C 1028.3 hPa Calm   3.2 km/h 99% 0 mm 53 W/m2
07:40 0.1 °C -0.1 °C 1028.3 hPa Calm   3.2 km/h 99% 0 mm 55 W/m2
07:50 0.1 °C -0.1 °C 1028.3 hPa Calm   1.6 km/h 99% 0 mm 43 W/m2
08:00 0.1 °C -0.1 °C 1028.3 hPa Calm   1.6 km/h 99% 0 mm 61 W/m2
08:10 0.2 °C 0.1 °C 1028.3 hPa Calm   3.2 km/h 99% 0 mm 75 W/m2
08:20 0.3 °C 0.2 °C 1028.3 hPa NW 1.6 km/h 3.2 km/h 99% 0 mm 74 W/m2
08:30 0.4 °C 0.3 °C 1028.3 hPa WNW 1.6 km/h 3.2 km/h 99% 0 mm 66 W/m2
08:40 0.7 °C 0.6 °C 1028.3 hPa WNW 1.6 km/h 3.2 km/h 99% 0 mm 75 W/m2
08:50 0.9 °C 0.8 °C 1028.3 hPa Calm   3.2 km/h 99% 0 mm 82 W/m2
09:00 1.3 °C 1.1 °C 1028.3 hPa Calm   3.2 km/h 99% 0 mm 95 W/m2
09:10 1.5 °C 1.3 °C 1028.3 hPa Calm   3.2 km/h 99% 0 mm 96 W/m2
09:20 1.7 °C 1.6 °C 1028.3 hPa Calm   3.2 km/h 99% 0 mm 97 W/m2
09:30 1.9 °C 1.8 °C 1028.3 hPa Calm   3.2 km/h 99% 0 mm 109 W/m2
09:40 2.2 °C 2.1 °C 1028.3 hPa NNW 1.6 km/h 8 km/h 99% 0 mm 164 W/m2
09:50 2.6 °C 2.4 °C 1028.3 hPa NNW 1.6 km/h 4.8 km/h 99% 0 mm 208 W/m2
Knjazevac, Serbia
Compliments of Weather Underground - 2 mb